^^
Vremenska postaja Bezina
 
Daily Summary for September 18, 2018 Units:  Metric    English   Both
Daily Weekly Monthly Yearly Custom
  Current: High: Low: Average:
Temperature: 16.3 °C 27.3 °C 12.9 °C 19.6 °C
Dew Point: 13.6 °C 17.6 °C 12.1 °C 14.5 °C
Humidity: 84% 97% 43% 76%
Wind Speed: 3.2km/h 9.7km/h 0.0km/h 1.1km/h
Wind Gust: 3.2km/h 16.1km/h - -
WindNE - - SE
Pressure: 1018.9 hPa 1020.7 hPa 1017.8 hPa -
Precipitation: 0.3 mm      
Historical Graphs
 
 
Tabular Data for September 18, 2018
Time Temperature Dew Point Pressure Wind Wind Speed Wind Gust Humidity Rainfall Rate (Hourly)
00:15 15.7 °C 14.6 °C 1020.3 hPa Calm     93% 0.0 mm
00:30 15.6 °C 14.4 °C 1020.3 hPa Calm     93% 0.0 mm
00:45 15.4 °C 14.3 °C 1020.2 hPa Calm     93% 0.0 mm
01:00 15.3 °C 14.3 °C 1020.1 hPa Calm     94% 0.0 mm
01:15 15.2 °C 14.2 °C 1020.0 hPa Calm     94% 0.0 mm
01:30 15.0 °C 13.9 °C 1020.1 hPa Calm     93% 0.0 mm
01:45 14.9 °C 13.9 °C 1020.1 hPa Calm     94% 0.0 mm
02:00 14.8 °C 13.8 °C 1020.0 hPa Calm     94% 0.0 mm
02:15 14.7 °C 13.7 °C 1020.0 hPa Calm     94% 0.0 mm
02:30 14.5 °C 13.6 °C 1020.0 hPa Calm     94% 0.0 mm
02:45 14.3 °C 13.4 °C 1019.9 hPa Calm     94% 0.0 mm
03:00 14.3 °C 13.3 °C 1019.9 hPa Calm     94% 0.0 mm
03:15 14.1 °C 13.2 °C 1019.8 hPa Calm     94% 0.0 mm
03:30 14.0 °C 13.1 °C 1019.8 hPa Calm     94% 0.0 mm
03:45 13.9 °C 12.9 °C 1019.7 hPa Calm     94% 0.0 mm
04:00 13.8 °C 12.8 °C 1019.8 hPa Calm     94% 0.0 mm
04:15 13.7 °C 12.9 °C 1019.7 hPa Calm     95% 0.0 mm
04:30 13.6 °C 12.8 °C 1019.8 hPa Calm     95% 0.0 mm
04:45 13.6 °C 12.8 °C 1019.8 hPa Calm     95% 0.0 mm
05:00 13.5 °C 12.7 °C 1019.8 hPa Calm     95% 0.3 mm
05:15 13.4 °C 12.6 °C 1019.8 hPa Calm     95% 0.3 mm
05:30 13.3 °C 12.6 °C 1019.9 hPa Calm     95% 0.3 mm
05:45 13.2 °C 12.4 °C 1019.9 hPa Calm     95% 0.3 mm
06:00 13.1 °C 12.3 °C 1019.9 hPa Calm     95% 0.0 mm
06:15 13.1 °C 12.3 °C 1019.9 hPa Calm     95% 0.0 mm
06:30 12.9 °C 12.2 °C 1019.9 hPa Calm     95% 0.0 mm
06:45 12.9 °C 12.1 °C 1020.0 hPa Calm     95% 0.0 mm
07:00 12.9 °C 12.3 °C 1020.1 hPa Calm     96% 0.0 mm
07:15 13.1 °C 12.4 °C 1020.2 hPa Calm     96% 0.0 mm
07:30 13.4 °C 12.9 °C 1020.3 hPa Calm     97% 0.0 mm
07:45 13.7 °C 13.2 °C 1020.3 hPa Calm     97% 0.0 mm
08:00 14.2 °C 13.8 °C 1020.2 hPa Calm     97% 0.0 mm
08:15 14.7 °C 14.2 °C 1020.1 hPa Calm     97% 0.0 mm
08:30 15.2 °C 14.7 °C 1020.2 hPa Calm     97% 0.0 mm
08:45 15.8 °C 15.3 °C 1020.4 hPa Calm     97% 0.0 mm
09:00 16.9 °C 16.3 °C 1020.4 hPa Calm     96% 0.0 mm
09:15 18.3 °C 16.5 °C 1020.3 hPa Calm     89% 0.0 mm
09:30 19.6 °C 16.4 °C 1020.4 hPa Calm     82% 0.0 mm
09:45 20.9 °C 16.9 °C 1020.6 hPa Calm     78% 0.0 mm
10:00 21.8 °C 17.6 °C 1020.6 hPa Calm     77% 0.0 mm
10:15 22.1 °C 17.1 °C 1020.7 hPa Calm     73% 0.0 mm
10:30 22.4 °C 17.2 °C 1020.7 hPa Calm     72% 0.0 mm
10:45 22.6 °C 17.1 °C 1020.7 hPa Calm     71% 0.0 mm
11:00 22.6 °C 17.3 °C 1020.7 hPa Calm     72% 0.0 mm
11:15 23.1 °C 16.6 °C 1020.7 hPa Calm     67% 0.0 mm
11:30 23.3 °C 15.9 °C 1020.6 hPa Calm     63% 0.0 mm
11:45 23.9 °C 15.1 °C 1020.6 hPa ESE 1.6 km/h 9.7 km/h 58% 0.0 mm
12:00 24.1 °C 15.0 °C 1020.4 hPa ESE 1.6 km/h 6.4 km/h 57% 0.0 mm
12:15 24.4 °C 15.9 °C 1020.2 hPa SSE 3.2 km/h 9.7 km/h 59% 0.0 mm
12:30 24.8 °C 16.0 °C 1020.2 hPa East 4.8 km/h 9.7 km/h 58% 0.0 mm
12:45 25.2 °C 16.3 °C 1020.1 hPa Calm   11.3 km/h 58% 0.0 mm
13:00 25.4 °C 16.3 °C 1019.9 hPa East 3.2 km/h 12.9 km/h 57% 0.0 mm
13:15 25.6 °C 15.9 °C 1019.9 hPa ESE 4.8 km/h 12.9 km/h 55% 0.0 mm
13:30 25.8 °C 15.5 °C 1019.8 hPa Calm   11.3 km/h 53% 0.0 mm
13:45 25.9 °C 15.6 °C 1019.6 hPa SE 4.8 km/h 14.5 km/h 53% 0.0 mm
14:00 25.9 °C 15.6 °C 1019.5 hPa East 3.2 km/h 14.5 km/h 53% 0.0 mm
14:15 26.3 °C 15.6 °C 1019.4 hPa ENE 3.2 km/h 16.1 km/h 52% 0.0 mm
14:30 26.3 °C 15.7 °C 1019.4 hPa Calm   12.9 km/h 52% 0.0 mm
14:45 26.6 °C 14.7 °C 1019.2 hPa East 1.6 km/h 8.0 km/h 48% 0.0 mm
15:00 26.6 °C 14.3 °C 1019.0 hPa Calm   9.7 km/h 47% 0.0 mm
15:15 27.0 °C 14.4 °C 1018.9 hPa SSE 9.7 km/h 11.3 km/h 46% 0.0 mm
15:30 26.9 °C 13.3 °C 1018.8 hPa South 4.8 km/h 12.9 km/h 43% 0.0 mm
15:45 27.0 °C 14.1 °C 1018.7 hPa NNW 1.6 km/h 12.9 km/h 45% 0.0 mm
16:00 27.1 °C 14.8 °C 1018.5 hPa South 8.0 km/h 9.7 km/h 47% 0.0 mm
16:15 27.1 °C 14.1 °C 1018.4 hPa East 1.6 km/h 12.9 km/h 45% 0.0 mm
16:30 27.3 °C 15.0 °C 1018.2 hPa East 1.6 km/h 9.7 km/h 47% 0.0 mm
16:45 27.2 °C 14.2 °C 1018.2 hPa SSW 1.6 km/h 8.0 km/h 45% 0.0 mm
17:00 27.1 °C 14.8 °C 1018.0 hPa ENE 1.6 km/h 8.0 km/h 47% 0.0 mm
17:15 27.0 °C 13.7 °C 1018.0 hPa South 8.0 km/h 9.7 km/h 44% 0.0 mm
17:30 26.6 °C 13.3 °C 1017.9 hPa ESE 1.6 km/h 8.0 km/h 44% 0.0 mm
17:45 26.6 °C 14.1 °C 1017.8 hPa ESE 1.6 km/h 3.2 km/h 46% 0.0 mm
18:00 26.4 °C 13.5 °C 1017.9 hPa Calm   6.4 km/h 45% 0.0 mm
18:15 25.7 °C 17.3 °C 1017.9 hPa Calm   3.2 km/h 60% 0.0 mm
18:30 24.7 °C 16.7 °C 1018.0 hPa Calm   3.2 km/h 61% 0.0 mm
18:45 23.4 °C 16.2 °C 1018.0 hPa Calm   1.6 km/h 64% 0.0 mm
19:00 22.3 °C 15.8 °C 1018.1 hPa South 3.2 km/h 3.2 km/h 67% 0.0 mm
19:15 21.1 °C 15.6 °C 1018.2 hPa South 3.2 km/h 3.2 km/h 71% 0.0 mm
19:30 19.8 °C 15.1 °C 1018.3 hPa Calm   3.2 km/h 74% 0.0 mm
19:45 18.9 °C 14.8 °C 1018.5 hPa East 3.2 km/h 6.4 km/h 77% 0.0 mm
20:00 18.2 °C 14.7 °C 1018.6 hPa ENE 3.2 km/h 4.8 km/h 80% 0.0 mm
20:15 17.7 °C 14.6 °C 1018.7 hPa ENE 1.6 km/h 3.2 km/h 82% 0.0 mm
20:30 17.3 °C 14.2 °C 1018.8 hPa Calm   4.8 km/h 82% 0.0 mm
20:45 16.9 °C 14.0 °C 1018.8 hPa Calm     83% 0.0 mm
21:00 16.6 °C 13.8 °C 1018.9 hPa Calm     84% 0.0 mm
21:15 16.3 °C 13.6 °C 1018.9 hPa NE 3.2 km/h 3.2 km/h 84% 0.0 mm
Juneau County Weather
Compliments of Weather Underground - 1.75 mb